createdAt,value
2022-12-14T00:01:48.915Z,100166.72
2022-12-14T00:04:18.365Z,100156.88
2022-12-14T00:06:47.086Z,100158.31
2022-12-14T00:09:15.751Z,100149.75
2022-12-14T00:11:44.370Z,100157.53
2022-12-14T00:14:14.444Z,100145.09
2022-12-14T00:16:43.044Z,100140.47
2022-12-14T00:19:13.116Z,100130.41
2022-12-14T00:21:41.925Z,100131.53
2022-12-14T00:24:12.621Z,100131.94
2022-12-14T00:26:41.217Z,100136.06
2022-12-14T00:29:09.880Z,100129.19
2022-12-14T00:31:39.986Z,100121.06
2022-12-14T00:34:08.709Z,100116.44
2022-12-14T00:36:38.004Z,100118.84
2022-12-14T00:39:06.851Z,100123.06
2022-12-14T00:41:35.468Z,100119.00
2022-12-14T00:44:04.194Z,100122.75
2022-12-14T00:46:32.923Z,100115.63
2022-12-14T00:49:02.990Z,100111.06
2022-12-14T00:51:31.618Z,100106.56
2022-12-14T00:54:00.269Z,100097.00
2022-12-14T00:56:28.884Z,100093.56
2022-12-14T00:58:57.539Z,100093.56
2022-12-14T01:01:26.405Z,100094.59
2022-12-14T01:04:15.595Z,100092.94
2022-12-14T01:06:46.099Z,100082.94
2022-12-14T01:09:15.285Z,100081.66
2022-12-14T01:11:44.500Z,100076.63
2022-12-14T01:14:14.751Z,100085.06
2022-12-14T01:16:43.716Z,100085.22
2022-12-14T01:19:14.314Z,100077.81
2022-12-14T01:21:44.732Z,100080.06
2022-12-14T01:24:13.754Z,100077.47
2022-12-14T01:26:42.388Z,100071.75
2022-12-14T01:29:13.013Z,100064.19
2022-12-14T01:31:41.727Z,100065.00
2022-12-14T01:34:11.427Z,100060.19
2022-12-14T01:36:40.598Z,100059.41
2022-12-14T01:39:13.760Z,100060.47
2022-12-14T01:41:44.274Z,100059.06
2022-12-14T01:44:50.435Z,100059.59
2022-12-14T01:47:24.523Z,100069.69
2022-12-14T01:49:57.574Z,100063.53
2022-12-14T01:52:29.851Z,100061.25
2022-12-14T01:55:04.556Z,100055.31
2022-12-14T01:57:39.390Z,100041.53
2022-12-14T02:00:13.232Z,100039.63
2022-12-14T02:02:45.478Z,100038.38
2022-12-14T02:05:16.303Z,100034.59
2022-12-14T02:07:49.023Z,100022.22
2022-12-14T02:10:19.965Z,100027.03
2022-12-14T02:12:52.158Z,100017.38
2022-12-14T02:15:21.138Z,100016.19
2022-12-14T02:17:50.448Z,100020.09
2022-12-14T02:20:19.699Z,100013.16
2022-12-14T02:23:21.079Z,100016.94
2022-12-14T02:26:32.296Z,100009.81
2022-12-14T02:29:28.497Z,99996.22
2022-12-14T02:32:06.242Z,99994.75
2022-12-14T02:34:47.547Z,99995.34
2022-12-14T02:37:24.156Z,99990.53
2022-12-14T02:40:02.223Z,99984.69
2022-12-14T02:42:41.065Z,99974.63
2022-12-14T02:45:20.423Z,99965.41
2022-12-14T02:47:55.480Z,99968.53
2022-12-14T02:50:30.511Z,99972.03
2022-12-14T02:53:07.613Z,99977.31
2022-12-14T02:55:40.395Z,99970.25
2022-12-14T02:58:15.579Z,99967.50
2022-12-14T03:00:46.836Z,99954.50
2022-12-14T03:03:15.634Z,99949.69
2022-12-14T03:05:44.288Z,99949.47
2022-12-14T03:08:16.669Z,99948.41
2022-12-14T03:10:49.942Z,99956.81
2022-12-14T03:13:26.220Z,99956.13
2022-12-14T03:16:00.971Z,99944.47
2022-12-14T03:18:34.551Z,99945.72
2022-12-14T03:21:05.048Z,99944.09
2022-12-14T03:23:36.274Z,99938.66
2022-12-14T03:26:10.726Z,99929.38
2022-12-14T03:28:45.722Z,99927.47
2022-12-14T03:31:20.272Z,99932.69
2022-12-14T03:33:52.484Z,99933.34
2022-12-14T03:36:28.613Z,99934.84
2022-12-14T03:39:01.452Z,99926.84
2022-12-14T03:41:39.143Z,99923.94
2022-12-14T03:44:20.553Z,99935.03
2022-12-14T03:46:59.323Z,99927.50
2022-12-14T03:49:45.267Z,99939.03
2022-12-14T03:52:26.709Z,99933.38
2022-12-14T03:55:08.998Z,99935.28
2022-12-14T03:57:55.844Z,99930.47
2022-12-14T04:00:26.566Z,99930.88
2022-12-14T04:03:03.758Z,99932.72
2022-12-14T04:05:38.202Z,99935.75
2022-12-14T04:08:14.238Z,99937.78
2022-12-14T04:11:05.762Z,99940.50
2022-12-14T04:13:58.798Z,99931.31
2022-12-14T04:16:51.051Z,99927.53
2022-12-14T04:19:26.158Z,99922.94
2022-12-14T04:21:59.959Z,99920.81
2022-12-14T04:24:52.669Z,99919.59
2022-12-14T04:27:27.643Z,99922.94
2022-12-14T04:29:57.606Z,99919.63
2022-12-14T04:32:32.936Z,99907.63
2022-12-14T04:35:10.427Z,99913.72
2022-12-14T04:37:42.874Z,99909.31
2022-12-14T04:40:15.872Z,99908.28
2022-12-14T04:42:49.380Z,99904.50
2022-12-14T04:45:23.013Z,99903.50
2022-12-14T04:48:01.293Z,99900.13
2022-12-14T04:50:35.905Z,99896.81
2022-12-14T04:53:11.244Z,99895.69
2022-12-14T04:55:44.615Z,99892.56
2022-12-14T04:58:17.872Z,99889.00
2022-12-14T05:00:59.694Z,99884.84
2022-12-14T05:03:32.310Z,99886.69
2022-12-14T05:06:10.743Z,99884.41
2022-12-14T05:09:05.196Z,99883.53
2022-12-14T05:11:56.415Z,99883.13
2022-12-14T05:14:34.507Z,99880.63
2022-12-14T05:17:08.915Z,99876.25
2022-12-14T05:19:38.883Z,99875.41
2022-12-14T05:22:09.973Z,99863.69
2022-12-14T05:24:38.615Z,99862.16
2022-12-14T05:27:07.249Z,99864.88
2022-12-14T05:29:35.901Z,99861.53
2022-12-14T05:32:05.413Z,99856.50
2022-12-14T05:34:34.278Z,99847.88
2022-12-14T05:37:03.066Z,99846.47
2022-12-14T05:39:33.824Z,99842.28
2022-12-14T05:42:02.429Z,99839.72
2022-12-14T05:44:31.041Z,99836.13
2022-12-14T05:46:59.687Z,99832.94
2022-12-14T05:49:28.274Z,99828.22
2022-12-14T05:51:56.938Z,99830.28
2022-12-14T05:54:25.580Z,99824.88
2022-12-14T05:56:55.598Z,99825.72
2022-12-14T05:59:24.249Z,99815.03
2022-12-14T06:01:53.162Z,99810.00
2022-12-14T06:04:22.013Z,99821.72
2022-12-14T06:06:51.077Z,99812.50
2022-12-14T06:09:20.044Z,99814.09
2022-12-14T06:11:50.059Z,99815.75
2022-12-14T06:14:20.393Z,99819.72
2022-12-14T06:16:49.310Z,99822.97
2022-12-14T06:19:17.953Z,99817.31
2022-12-14T06:21:46.612Z,99811.41
2022-12-14T06:24:15.748Z,99812.03
2022-12-14T06:26:44.549Z,99811.19
2022-12-14T06:29:17.884Z,99807.47
2022-12-14T06:31:49.393Z,99808.09
2022-12-14T06:34:19.227Z,99813.41
2022-12-14T06:36:48.992Z,99816.09
2022-12-14T06:39:18.566Z,99816.09
2022-12-14T06:41:51.944Z,99811.84
2022-12-14T06:44:20.982Z,99819.19
2022-12-14T06:46:51.003Z,99814.19
2022-12-14T06:49:19.673Z,99806.03
2022-12-14T06:51:48.564Z,99809.78
2022-12-14T06:54:19.208Z,99806.69
2022-12-14T06:56:48.648Z,99806.78
2022-12-14T06:59:18.140Z,99811.66
2022-12-14T07:01:50.312Z,99804.16
2022-12-14T07:04:21.879Z,99806.00
2022-12-14T07:06:50.713Z,99804.09
2022-12-14T07:09:19.669Z,99810.34
2022-12-14T07:11:50.569Z,99811.41
2022-12-14T07:14:19.645Z,99813.50
2022-12-14T07:16:49.069Z,99809.47
2022-12-14T07:19:20.005Z,99804.91
2022-12-14T07:21:48.691Z,99808.28
2022-12-14T07:24:17.559Z,99802.25
2022-12-14T07:26:46.686Z,99803.88
2022-12-14T07:29:16.964Z,99804.94
2022-12-14T07:31:49.588Z,99800.38
2022-12-14T07:34:20.249Z,99800.56
2022-12-14T07:36:52.245Z,99802.19
2022-12-14T07:39:22.018Z,99809.22
2022-12-14T07:41:52.297Z,99804.28
2022-12-14T07:44:21.261Z,99807.66
2022-12-14T07:46:50.462Z,99806.97
2022-12-14T07:49:20.875Z,99811.84
2022-12-14T07:51:50.117Z,99811.25
2022-12-14T07:54:18.897Z,99812.75
2022-12-14T07:56:48.114Z,99822.84
2022-12-14T07:59:19.299Z,99815.72
2022-12-14T08:01:48.126Z,99831.47
2022-12-14T08:04:20.229Z,99833.97
2022-12-14T08:06:50.108Z,99834.78
2022-12-14T08:09:20.288Z,99831.66
2022-12-14T08:11:49.263Z,99830.59
2022-12-14T08:14:19.980Z,99823.84
2022-12-14T08:16:50.766Z,99820.09
2022-12-14T08:19:21.968Z,99820.06
2022-12-14T08:21:50.607Z,99821.09
2022-12-14T08:24:19.499Z,99819.91
2022-12-14T08:26:49.284Z,99835.41
2022-12-14T08:29:19.032Z,99830.63
2022-12-14T08:31:48.195Z,99836.09
2022-12-14T08:34:22.247Z,99848.28
2022-12-14T08:36:52.418Z,99850.16
2022-12-14T08:39:21.445Z,99849.50
2022-12-14T08:41:50.485Z,99848.03
2022-12-14T08:44:19.344Z,99856.59
2022-12-14T08:46:48.081Z,99845.31
2022-12-14T08:49:17.278Z,99838.41
2022-12-14T08:51:45.894Z,99836.53
2022-12-14T08:54:16.104Z,99833.81
2022-12-14T08:56:44.891Z,99834.84
2022-12-14T08:59:30.255Z,99832.31
2022-12-14T09:02:03.025Z,99833.16
2022-12-14T09:04:31.982Z,99845.09
2022-12-14T09:07:01.011Z,99824.16
2022-12-14T09:09:31.279Z,99836.75
2022-12-14T09:12:03.397Z,99841.78
2022-12-14T09:14:32.436Z,99844.72
2022-12-14T09:17:01.333Z,99841.13
2022-12-14T09:19:31.206Z,99851.81
2022-12-14T09:21:59.957Z,99843.84
2022-12-14T09:24:30.407Z,99851.84
2022-12-14T09:27:02.264Z,99851.84
2022-12-14T09:29:31.831Z,99855.41
2022-12-14T09:32:00.908Z,99855.84
2022-12-14T09:34:29.966Z,99847.47
2022-12-14T09:37:04.507Z,99851.44
2022-12-14T09:39:35.266Z,99857.09
2022-12-14T09:42:15.048Z,99858.16
2022-12-14T09:44:57.456Z,99860.69
2022-12-14T09:47:32.454Z,99859.38
2022-12-14T09:50:05.030Z,99859.16
2022-12-14T09:52:40.093Z,99862.72
2022-12-14T09:55:21.452Z,99857.63
2022-12-14T09:57:53.312Z,99848.13
2022-12-14T10:00:22.778Z,99850.25
2022-12-14T10:03:28.041Z,99841.28
2022-12-14T10:06:22.832Z,99839.38
2022-12-14T10:09:03.014Z,99841.88
2022-12-14T10:11:40.774Z,99847.78
2022-12-14T10:14:20.669Z,99845.72
2022-12-14T10:17:01.076Z,99848.69
2022-12-14T10:19:38.755Z,99841.56
2022-12-14T10:22:13.614Z,99838.19
2022-12-14T10:24:46.701Z,99834.19
2022-12-14T10:27:23.156Z,99833.97
2022-12-14T10:29:58.452Z,99835.25
2022-12-14T10:32:33.340Z,99843.25
2022-12-14T10:35:13.244Z,99843.28
2022-12-14T10:37:44.826Z,99844.78
2022-12-14T10:40:32.962Z,99854.41
2022-12-14T10:43:27.509Z,99852.50
2022-12-14T10:46:10.115Z,99838.28
2022-12-14T10:48:49.936Z,99839.09
2022-12-14T10:51:22.352Z,99834.91
2022-12-14T10:53:56.652Z,99835.31
2022-12-14T10:56:29.580Z,99836.78
2022-12-14T10:59:38.803Z,99829.25
2022-12-14T11:02:15.641Z,99821.66
2022-12-14T11:04:49.617Z,99822.72
2022-12-14T11:07:20.137Z,99819.81
2022-12-14T11:09:49.106Z,99818.53
2022-12-14T11:12:21.321Z,99811.00
2022-12-14T11:14:57.424Z,99812.91
2022-12-14T11:17:37.778Z,99817.28
2022-12-14T11:20:16.683Z,99818.53
2022-12-14T11:22:47.306Z,99817.91
2022-12-14T11:25:37.453Z,99818.50
2022-12-14T11:28:18.464Z,99821.69
2022-12-14T11:30:58.273Z,99821.25
2022-12-14T11:33:32.298Z,99825.25
2022-12-14T11:36:01.109Z,99827.78
2022-12-14T11:38:31.518Z,99825.66
2022-12-14T11:41:08.860Z,99819.38
2022-12-14T11:43:40.111Z,99815.81
2022-12-14T11:46:10.200Z,99818.53
2022-12-14T11:48:48.636Z,99821.06
2022-12-14T11:51:17.270Z,99827.97
2022-12-14T11:54:02.015Z,99825.66
2022-12-14T11:56:31.207Z,99840.34
2022-12-14T11:58:59.918Z,99846.47
2022-12-14T12:01:30.204Z,99838.47
2022-12-14T12:04:00.731Z,99837.03
2022-12-14T12:06:30.951Z,99842.25
2022-12-14T12:09:02.612Z,99837.84
2022-12-14T12:11:34.805Z,99837.59
2022-12-14T12:14:08.275Z,99845.38
2022-12-14T12:16:45.695Z,99849.56
2022-12-14T12:19:20.421Z,99837.34
2022-12-14T12:21:49.098Z,99841.72
2022-12-14T12:24:22.230Z,99838.97
2022-12-14T12:26:53.983Z,99834.22
2022-12-14T12:29:27.935Z,99837.16
2022-12-14T12:32:01.797Z,99825.03
2022-12-14T12:34:36.157Z,99823.09
2022-12-14T12:37:28.184Z,99820.09
2022-12-14T12:40:03.531Z,99822.78
2022-12-14T12:42:42.602Z,99816.81
2022-12-14T12:45:20.677Z,99822.28
2022-12-14T12:47:55.639Z,99828.16
2022-12-14T12:50:28.003Z,99821.66
2022-12-14T12:53:03.553Z,99823.16
2022-12-14T12:55:36.897Z,99818.75
2022-12-14T12:58:09.965Z,99827.31
2022-12-14T13:00:42.054Z,99827.31
2022-12-14T13:03:20.451Z,99826.09
2022-12-14T13:05:50.161Z,99843.28
2022-12-14T13:08:28.284Z,99838.44
2022-12-14T13:13:53.770Z,99846.34
2022-12-14T13:16:28.294Z,99842.53
2022-12-14T13:19:40.367Z,99849.09
2022-12-14T13:22:04.931Z,99850.38
2022-12-14T13:24:35.180Z,99848.88
2022-12-14T13:27:42.136Z,99843.47
2022-12-14T13:30:23.710Z,99840.97
2022-12-14T13:33:16.392Z,99849.19
2022-12-14T13:36:07.662Z,99858.72
2022-12-14T13:38:58.784Z,99846.47
2022-12-14T13:41:41.422Z,99842.81
2022-12-14T13:44:41.919Z,99848.03
2022-12-14T13:47:17.478Z,99847.41
2022-12-14T13:50:18.495Z,99854.34
2022-12-14T13:52:45.988Z,99843.03
2022-12-14T13:55:34.516Z,99841.59
2022-12-14T13:58:15.468Z,99848.06
2022-12-14T14:00:57.326Z,99850.38
2022-12-14T14:03:51.466Z,99856.66
2022-12-14T14:06:39.974Z,99860.00
2022-12-14T14:09:57.518Z,99866.28
2022-12-14T14:12:43.333Z,99856.66
2022-12-14T14:15:30.539Z,99866.94
2022-12-14T14:18:15.516Z,99866.28
2022-12-14T14:20:46.824Z,99856.88
2022-12-14T14:23:39.213Z,99867.56
2022-12-14T14:26:34.514Z,99863.38
2022-12-14T14:29:24.257Z,99858.13
2022-12-14T14:31:59.234Z,99855.81
2022-12-14T14:34:41.053Z,99865.03
2022-12-14T14:37:28.366Z,99868.81
2022-12-14T14:40:29.255Z,99875.28
2022-12-14T14:43:19.618Z,99874.44
2022-12-14T14:45:53.596Z,99877.81
2022-12-14T14:48:37.309Z,99883.03
2022-12-14T14:51:18.081Z,99876.97
2022-12-14T14:53:50.220Z,99879.03
2022-12-14T14:56:39.951Z,99894.75
2022-12-14T14:59:50.947Z,99891.16
2022-12-14T15:02:33.743Z,99894.75
2022-12-14T15:05:33.218Z,99895.41
2022-12-14T15:07:56.327Z,99894.97
2022-12-14T15:10:32.117Z,99900.59
2022-12-14T15:13:06.034Z,99905.63
2022-12-14T15:15:40.023Z,99906.94
2022-12-14T15:18:22.371Z,99902.34
2022-12-14T15:20:57.157Z,99894.94
2022-12-14T15:23:26.152Z,99905.03
2022-12-14T15:26:00.139Z,99912.75
2022-12-14T15:28:29.676Z,99912.34
2022-12-14T15:31:01.225Z,99919.50
2022-12-14T15:33:34.349Z,99920.72
2022-12-14T15:36:09.473Z,99925.09
2022-12-14T15:38:38.527Z,99932.25
2022-12-14T15:41:15.113Z,99927.66
2022-12-14T15:43:46.385Z,99929.53
2022-12-14T15:46:24.764Z,99933.28
2022-12-14T15:48:58.740Z,99936.22
2022-12-14T15:51:32.413Z,99941.44
2022-12-14T15:54:03.197Z,99937.25
2022-12-14T15:56:34.579Z,99939.16
2022-12-14T15:59:06.433Z,99937.66
2022-12-14T16:01:39.993Z,99944.16
2022-12-14T16:04:14.302Z,99952.97
2022-12-14T16:06:49.488Z,99936.19
2022-12-14T16:09:25.253Z,99939.13
2022-12-14T16:11:56.854Z,99944.16
2022-12-14T16:14:29.268Z,99946.06
2022-12-14T16:16:59.935Z,99954.00
2022-12-14T16:19:57.408Z,99952.53
2022-12-14T16:22:25.935Z,99953.56
2022-12-14T16:25:17.414Z,99953.69
2022-12-14T16:27:49.952Z,99964.44
2022-12-14T16:30:28.867Z,99966.53
2022-12-14T16:33:16.389Z,99968.34
2022-12-14T16:35:46.321Z,99969.44
2022-12-14T16:38:17.159Z,99975.50
2022-12-14T16:40:55.310Z,99978.88
2022-12-14T16:43:29.528Z,99979.94
2022-12-14T16:46:16.641Z,99980.78
2022-12-14T16:49:20.767Z,99982.44
2022-12-14T16:52:07.259Z,99992.06
2022-12-14T16:54:38.734Z,99989.78
2022-12-14T16:57:17.276Z,99995.84
2022-12-14T16:59:47.958Z,100001.03
2022-12-14T17:02:31.860Z,99998.56
2022-12-14T17:05:05.753Z,100005.91
2022-12-14T17:07:36.505Z,100010.88
2022-12-14T17:10:05.989Z,100021.00
2022-12-14T17:12:34.702Z,100017.41
2022-12-14T17:15:03.303Z,100017.63
2022-12-14T17:17:36.910Z,100011.31
2022-12-14T17:20:13.625Z,100019.81
2022-12-14T17:22:43.606Z,100016.56
2022-12-14T17:25:18.497Z,100016.38
2022-12-14T17:27:47.381Z,100021.81
2022-12-14T17:30:20.956Z,100023.47
2022-12-14T17:32:50.495Z,100023.88
2022-12-14T17:35:23.144Z,100026.81
2022-12-14T17:37:52.324Z,100032.56
2022-12-14T17:40:20.914Z,100032.22
2022-12-14T17:42:53.735Z,100025.38
2022-12-14T17:45:24.573Z,100027.41
2022-12-14T17:47:53.360Z,100029.88
2022-12-14T17:50:23.767Z,100034.94
2022-12-14T17:52:52.418Z,100036.63
2022-12-14T17:55:23.638Z,100037.88
2022-12-14T17:57:52.690Z,100030.53
2022-12-14T18:00:41.041Z,100032.22
2022-12-14T18:03:11.450Z,100032.59
2022-12-14T18:05:48.165Z,100033.66
2022-12-14T18:08:17.462Z,100030.28
2022-12-14T18:10:46.908Z,100035.31
2022-12-14T18:13:15.615Z,100030.28
2022-12-14T18:15:49.953Z,100039.06
2022-12-14T18:18:19.241Z,100036.97
2022-12-14T18:20:51.786Z,100042.88
2022-12-14T18:23:21.668Z,100033.00
2022-12-14T18:25:52.486Z,100043.44
2022-12-14T18:28:22.128Z,100041.13
2022-12-14T18:30:55.410Z,100043.22
2022-12-14T18:33:26.441Z,100046.56
2022-12-14T18:35:57.598Z,100042.81
2022-12-14T18:38:27.061Z,100043.94
2022-12-14T18:40:58.679Z,100042.22
2022-12-14T18:43:29.815Z,100049.34
2022-12-14T18:45:59.240Z,100057.00
2022-12-14T18:48:28.082Z,100055.59
2022-12-14T18:50:58.447Z,100055.44
2022-12-14T18:53:28.124Z,100057.09
2022-12-14T18:55:57.141Z,100049.16
2022-12-14T18:58:28.389Z,100063.81
2022-12-14T19:01:00.338Z,100057.81
2022-12-14T19:03:31.970Z,100070.38
2022-12-14T19:06:42.301Z,100080.38
2022-12-14T19:08:57.108Z,100074.47
2022-12-14T19:11:31.718Z,100082.03
2022-12-14T19:14:01.032Z,100078.09
2022-12-14T19:16:29.882Z,100079.31
2022-12-14T19:18:58.547Z,100081.97
2022-12-14T19:21:29.695Z,100087.94
2022-12-14T19:23:59.616Z,100093.69
2022-12-14T19:26:29.336Z,100091.56
2022-12-14T19:28:58.599Z,100093.31
2022-12-14T19:31:27.506Z,100094.16
2022-12-14T19:33:56.193Z,100090.97
2022-12-14T19:36:25.279Z,100095.28
2022-12-14T19:38:55.258Z,100099.78
2022-12-14T19:41:24.248Z,100103.94
2022-12-14T19:43:52.896Z,100108.84
2022-12-14T19:46:23.873Z,100116.22
2022-12-14T19:48:52.644Z,100111.63
2022-12-14T19:51:21.614Z,100122.06
2022-12-14T19:53:50.289Z,100122.56
2022-12-14T19:56:20.650Z,100118.34
2022-12-14T19:58:49.315Z,100121.19
2022-12-14T20:01:19.026Z,100122.50
2022-12-14T20:03:49.251Z,100117.88
2022-12-14T20:06:17.997Z,100127.06
2022-12-14T20:08:49.496Z,100123.06
2022-12-14T20:11:20.431Z,100126.69
2022-12-14T20:13:53.273Z,100129.84
2022-12-14T20:16:26.176Z,100132.13
2022-12-14T20:18:55.543Z,100140.88
2022-12-14T20:21:24.373Z,100147.38
2022-12-14T20:23:53.017Z,100146.63
2022-12-14T20:26:24.492Z,100153.44
2022-12-14T20:28:54.436Z,100156.09
2022-12-14T20:31:23.646Z,100156.47
2022-12-14T20:33:52.992Z,100162.34
2022-12-14T20:36:22.325Z,100162.19
2022-12-14T20:38:56.131Z,100169.44
2022-12-14T20:41:26.748Z,100166.94
2022-12-14T20:43:55.810Z,100170.19
2022-12-14T20:46:31.862Z,100169.16
2022-12-14T20:49:02.389Z,100174.78
2022-12-14T20:51:32.819Z,100173.66
2022-12-14T20:54:02.203Z,100177.06
2022-12-14T20:56:32.280Z,100184.47
2022-12-14T20:59:00.933Z,100184.38
2022-12-14T21:01:29.701Z,100188.78
2022-12-14T21:04:01.719Z,100185.50
2022-12-14T21:06:30.454Z,100196.84
2022-12-14T21:09:11.679Z,100199.81
2022-12-14T21:12:01.578Z,100204.44
2022-12-14T21:14:32.415Z,100202.91
2022-12-14T21:17:01.190Z,100211.56
2022-12-14T21:19:30.282Z,100206.88
2022-12-14T21:21:58.892Z,100207.53
2022-12-14T21:25:01.108Z,100213.66
2022-12-14T21:27:20.357Z,100218.50
2022-12-14T21:29:49.339Z,100209.69
2022-12-14T21:32:19.353Z,100218.13
2022-12-14T21:34:48.762Z,100220.03
2022-12-14T21:37:18.107Z,100211.19
2022-12-14T21:39:53.877Z,100207.34
2022-12-14T21:42:25.027Z,100208.19
2022-12-14T21:44:55.291Z,100216.25
2022-12-14T21:47:26.731Z,100213.16
2022-12-14T21:49:56.102Z,100220.38
2022-12-14T21:52:27.108Z,100211.38
2022-12-14T21:54:55.974Z,100216.06
2022-12-14T21:57:49.627Z,100211.13
2022-12-14T22:00:20.384Z,100219.00
2022-12-14T22:02:49.194Z,100217.13
2022-12-14T22:05:18.144Z,100213.84
2022-12-14T22:07:46.888Z,100212.59
2022-12-14T22:10:19.936Z,100209.59
2022-12-14T22:12:52.992Z,100210.72
2022-12-14T22:15:21.641Z,100209.78
2022-12-14T22:17:51.811Z,100203.00
2022-12-14T22:20:20.449Z,100197.31
2022-12-14T22:22:49.089Z,100197.78
2022-12-14T22:25:17.878Z,100199.91
2022-12-14T22:27:49.916Z,100210.72
2022-12-14T22:30:21.165Z,100210.44
2022-12-14T22:32:49.762Z,100216.63
2022-12-14T22:35:18.495Z,100216.56
2022-12-14T22:37:47.449Z,100216.09
2022-12-14T22:40:16.305Z,100214.19
2022-12-14T22:42:44.882Z,100209.16
2022-12-14T22:45:13.533Z,100204.72
2022-12-14T22:47:44.309Z,100214.66
2022-12-14T22:50:13.081Z,100219.34
2022-12-14T22:52:41.674Z,100218.72
2022-12-14T22:55:11.319Z,100221.06
2022-12-14T22:57:44.073Z,100229.22
2022-12-14T23:00:16.410Z,100228.91
2022-12-14T23:02:48.800Z,100225.06
2022-12-14T23:05:18.726Z,100235.38
2022-12-14T23:07:47.518Z,100233.72
2022-12-14T23:10:33.837Z,100227.28
2022-12-14T23:13:19.919Z,100232.84
2022-12-14T23:16:06.146Z,100225.16
2022-12-14T23:18:53.766Z,100237.59
2022-12-14T23:21:39.966Z,100247.94
2022-12-14T23:24:26.849Z,100256.25
2022-12-14T23:27:12.723Z,100257.44
2022-12-14T23:29:59.311Z,100264.28
2022-12-14T23:32:45.181Z,100267.13
2022-12-14T23:35:32.755Z,100271.50
2022-12-14T23:38:23.327Z,100264.59
2022-12-14T23:41:09.542Z,100263.13
2022-12-14T23:43:55.524Z,100266.84
2022-12-14T23:46:41.714Z,100267.00
2022-12-14T23:49:28.309Z,100263.09
2022-12-14T23:52:15.666Z,100267.00
2022-12-14T23:55:01.867Z,100276.47
2022-12-14T23:57:47.690Z,100281.91
